Time;durP1;ratioP1;P1;durP2;ratioP2;P2;SDS_P1;SDS_P2;PMS_P1;PMS_P2;Temp;Humidity;BMP_temperature;BMP_pressure;BME280_temperature;BME280_humidity;BME280_pressure;Samples;Min_cycle;Max_cycle;Signal;HPM_P1;HPM_P2
2023/01/05 00:00:20;;;;;;;23.90;7.07;;;9.30;99.90;;;;;;6151414;23;20096;-86
2023/01/05 00:02:58;;;;;;;31.93;6.93;;;10.90;99.90;;;;;;6183654;23;20055;-86
2023/01/05 00:05:39;;;;;;;28.57;8.03;;;10.90;99.90;;;;;;6158720;23;20060;-86
2023/01/05 00:08:05;;;;;;;27.40;6.03;;;11.10;99.90;;;;;;6160023;23;20056;-86
2023/01/05 00:23:00;;;;;;;32.35;8.88;;;10.50;99.90;;;;;;6186212;23;20021;-87
2023/01/05 00:25:39;;;;;;;36.27;11.27;;;8.90;99.90;;;;;;6185875;23;20013;-86
2023/01/05 00:28:05;;;;;;;33.92;9.30;;;11.00;99.90;;;;;;6159556;23;20045;-86
2023/01/05 00:30:49;;;;;;;29.88;7.38;;;10.60;99.90;;;;;;6158554;23;20024;-86
2023/01/05 00:33:27;;;;;;;22.27;7.20;;;8.30;99.90;;;;;;6159187;23;20083;-86
2023/01/05 00:35:53;;;;;;;30.70;11.50;;;11.10;99.90;;;;;;6186610;23;20092;-86
2023/01/05 00:38:25;;;;;;;30.35;6.45;;;11.10;99.90;;;;;;6185113;23;20055;-86
2023/01/05 00:41:12;;;;;;;22.63;5.25;;;10.90;99.90;;;;;;6186721;23;20064;-86
2023/01/05 00:43:38;;;;;;;26.67;6.43;;;10.90;99.90;;;;;;6185897;23;20334;-86
2023/01/05 00:47:11;;;;;;;31.50;9.23;;;11.00;99.90;;;;;;6186804;23;20021;-86
2023/01/05 00:50:02;;;;;;;25.60;5.88;;;9.70;99.90;;;;;;6184161;23;20025;-86
2023/01/05 00:52:30;;;;;;;20.70;4.90;;;9.60;99.90;;;;;;6158141;23;20323;-86
2023/01/05 00:54:56;;;;;;;27.83;5.95;;;9.70;99.90;;;;;;6159696;23;20023;-85
2023/01/05 00:57:31;;;;;;;28.40;6.77;;;11.00;99.90;;;;;;6184976;23;20049;-86
2023/01/05 01:00:16;;;;;;;29.07;6.33;;;11.00;99.90;;;;;;6152734;23;20017;-86
2023/01/05 01:02:54;;;;;;;32.60;9.27;;;9.70;99.90;;;;;;6159618;23;20013;-86
2023/01/05 01:05:38;;;;;;;26.58;8.27;;;11.30;99.90;;;;;;6156333;23;20056;-86
2023/01/05 01:08:16;;;;;;;29.60;6.57;;;9.50;99.90;;;;;;6186349;23;20024;-86
2023/01/05 01:11:07;;;;;;;24.02;4.72;;;11.20;99.90;;;;;;6159367;23;20048;-86
2023/01/05 01:13:47;;;;;;;29.95;6.70;;;9.70;99.90;;;;;;6185066;23;20350;-86
2023/01/05 01:16:34;;;;;;;23.67;4.68;;;11.10;99.90;;;;;;6185806;23;20385;-85
2023/01/05 01:18:59;;;;;;;26.95;4.68;;;10.10;99.90;;;;;;6159460;23;20020;-86
2023/01/05 01:21:41;;;;;;;28.48;5.88;;;9.70;99.90;;;;;;6184690;23;20319;-86
2023/01/05 01:24:07;;;;;;;22.63;4.47;;;11.10;99.90;;;;;;6159624;23;20067;-86
2023/01/05 01:26:36;;;;;;;27.40;6.83;;;9.80;99.90;;;;;;6157889;23;20424;-85
2023/01/05 01:29:01;;;;;;;28.47;7.00;;;11.20;99.90;;;;;;6159033;23;20067;-86
2023/01/05 01:31:47;;;;;;;30.80;6.90;;;10.80;99.90;;;;;;6158947;23;20099;-86
2023/01/05 01:34:20;;;;;;;25.15;5.78;;;10.60;99.90;;;;;;6184794;23;20021;-85
2023/01/05 01:37:03;;;;;;;24.48;5.72;;;11.10;99.90;;;;;;6159927;23;20024;-86
2023/01/05 01:39:44;;;;;;;28.80;5.20;;;10.10;99.90;;;;;;6158877;23;20035;-85
2023/01/05 01:42:31;;;;;;;32.10;6.05;;;10.40;99.90;;;;;;6157854;23;20341;-86
2023/01/05 01:45:19;;;;;;;24.70;6.38;;;9.00;99.90;;;;;;6158951;23;20345;-86
2023/01/05 01:47:59;;;;;;;25.37;5.07;;;9.70;99.90;;;;;;6188679;23;20043;-86
2023/01/05 01:50:48;;;;;;;23.23;4.45;;;11.10;99.90;;;;;;6215026;23;20471;-85
2023/01/05 01:53:40;;;;;;;28.90;5.13;;;9.70;99.90;;;;;;6215340;23;20020;-87
2023/01/05 01:56:13;;;;;;;27.63;5.50;;;10.70;99.90;;;;;;6214908;23;20028;-85
2023/01/05 01:58:54;;;;;;;22.90;4.63;;;11.10;99.90;;;;;;6189113;23;20017;-86
2023/01/05 02:01:32;;;;;;;27.30;5.50;;;10.80;99.90;;;;;;6213745;23;20406;-86
2023/01/05 02:04:19;;;;;;;25.33;4.97;;;9.70;99.90;;;;;;6215798;23;20118;-86
2023/01/05 02:06:59;;;;;;;24.53;4.70;;;10.80;99.90;;;;;;6181689;23;20020;-86
2023/01/05 02:09:37;;;;;;;24.58;5.32;;;10.80;99.90;;;;;;6214040;23;20047;-86
2023/01/05 02:12:47;;;;;;;23.58;5.32;;;10.70;99.90;;;;;;6215217;23;20024;-86
2023/01/05 02:15:31;;;;;;;21.55;4.63;;;9.80;99.90;;;;;;6098296;23;20021;-86
2023/01/05 02:18:36;;;;;;;22.88;4.40;;;10.90;99.90;;;;;;6187006;23;20017;-86
2023/01/05 02:21:30;;;;;;;23.08;4.90;;;9.70;99.90;;;;;;6188826;23;20368;-86
2023/01/05 02:28:30;;;;;;;22.27;5.10;;;9.60;99.90;;;;;;6214567;23;20017;-86
2023/01/05 02:31:34;;;;;;;25.20;4.90;;;9.70;99.90;;;;;;6150177;23;20107;-87
2023/01/05 02:34:29;;;;;;;21.95;4.90;;;9.60;99.90;;;;;;6214614;23;20314;-85
2023/01/05 02:37:43;;;;;;;22.38;4.68;;;9.50;99.90;;;;;;6187681;23;20013;-86
2023/01/05 02:40:35;;;;;;;23.38;4.43;;;9.60;99.90;;;;;;6188031;23;20404;-86
2023/01/05 02:43:23;;;;;;;21.93;5.37;;;9.60;99.90;;;;;;6188114;23;20035;-86
2023/01/05 02:46:40;;;;;;;22.30;6.23;;;9.20;99.90;;;;;;6158188;23;20092;-86
2023/01/05 02:49:34;;;;;;;18.50;4.33;;;9.50;99.90;;;;;;6184703;23;20021;-86
2023/01/05 02:52:11;;;;;;;29.08;6.13;;;9.50;99.90;;;;;;6184392;23;20017;-86
2023/01/05 02:54:58;;;;;;;26.77;6.53;;;11.10;99.90;;;;;;6158267;23;20024;-86
2023/01/05 02:57:51;;;;;;;16.73;4.30;;;10.80;99.90;;;;;;6158138;23;20013;-86
2023/01/05 03:00:39;;;;;;;19.07;4.60;;;9.60;99.90;;;;;;6158096;23;20013;-85
2023/01/05 03:03:20;;;;;;;21.90;4.87;;;10.90;99.90;;;;;;6158222;23;20346;-86
2023/01/05 03:06:00;;;;;;;24.43;4.63;;;9.60;99.90;;;;;;6157125;23;20017;-86
2023/01/05 03:08:46;;;;;;;24.07;6.50;;;9.40;99.90;;;;;;6156847;23;20075;-86
2023/01/05 03:15:27;;;;;;;32.27;8.07;;;9.50;99.90;;;;;;6092987;23;20018;-86
2023/01/05 03:18:18;;;;;;;24.33;5.07;;;9.60;99.90;;;;;;6087770;23;20017;-86
2023/01/05 03:21:00;;;;;;;26.67;5.73;;;9.30;99.90;;;;;;6140184;23;20395;-86
2023/01/05 03:35:32;;;;;;;25.03;5.33;;;9.20;99.90;;;;;;6195146;23;20072;-83
2023/01/05 03:38:20;;;;;;;31.93;7.53;;;9.20;99.90;;;;;;6160236;23;20184;-86
2023/01/05 03:41:00;;;;;;;25.10;5.13;;;9.20;99.90;;;;;;6186375;23;20110;-86
2023/01/05 03:43:26;;;;;;;24.53;6.07;;;10.10;99.90;;;;;;6159696;23;20453;-85
2023/01/05 03:45:58;;;;;;;20.70;4.33;;;10.80;99.90;;;;;;6154785;23;20023;-86
2023/01/05 03:48:27;;;;;;;21.10;4.57;;;10.80;99.90;;;;;;6185243;23;20454;-86
2023/01/05 03:50:56;;;;;;;23.47;5.10;;;10.80;99.90;;;;;;6160229;23;20017;-86
2023/01/05 03:53:22;;;;;;;25.90;5.40;;;10.30;99.90;;;;;;6159874;23;20533;-86
2023/01/05 03:56:03;;;;;;;26.63;4.50;;;9.20;99.90;;;;;;6186167;23;20024;-85
2023/01/05 03:58:28;;;;;;;19.97;3.87;;;9.30;99.90;;;;;;6159999;23;20029;-85
2023/01/05 04:01:04;;;;;;;22.30;4.67;;;9.10;99.90;;;;;;6186023;23;20017;-85
2023/01/05 04:03:50;;;;;;;23.27;4.40;;;10.20;99.90;;;;;;6186469;23;20017;-85
2023/01/05 04:06:24;;;;;;;23.40;4.50;;;10.90;99.90;;;;;;6185801;23;20013;-85
2023/01/05 04:08:50;;;;;;;23.20;4.63;;;10.90;99.90;;;;;;6159495;23;20088;-85
2023/01/05 04:11:31;;;;;;;27.57;4.57;;;10.40;99.90;;;;;;6199691;23;20017;-85
2023/01/05 04:13:57;;;;;;;21.90;4.23;;;9.50;99.90;;;;;;6160315;23;20015;-85
2023/01/05 04:16:31;;;;;;;21.90;4.73;;;10.50;99.90;;;;;;6158772;23;20407;-86
2023/01/05 04:19:14;;;;;;;23.13;4.40;;;10.70;99.90;;;;;;6160065;23;20021;-85
2023/01/05 04:22:01;;;;;;;17.13;3.72;;;9.40;99.90;;;;;;6160165;23;20457;-85
2023/01/05 04:24:42;;;;;;;19.93;4.13;;;8.40;99.90;;;;;;6186133;23;20013;-86
2023/01/05 04:27:08;;;;;;;21.53;4.17;;;9.90;99.90;;;;;;6160063;23;20017;-86
2023/01/05 04:29:46;;;;;;;25.37;4.17;;;9.40;99.90;;;;;;6158859;23;20108;-85
2023/01/05 04:32:11;;;;;;;19.57;3.63;;;10.60;99.90;;;;;;6159277;23;20020;-85
2023/01/05 04:34:49;;;;;;;23.08;4.40;;;11.00;99.90;;;;;;6186639;23;20338;-86
2023/01/05 04:37:15;;;;;;;18.55;3.88;;;10.70;99.90;;;;;;6185357;23;20052;-85
2023/01/05 04:39:43;;;;;;;22.03;3.67;;;10.90;99.90;;;;;;6160119;23;20017;-85
2023/01/05 04:42:21;;;;;;;22.48;4.07;;;10.90;99.90;;;;;;6186193;23;20441;-85
2023/01/05 04:44:48;;;;;;;18.98;3.92;;;11.00;99.90;;;;;;6159150;23;20021;-85
2023/01/05 04:47:39;;;;;;;21.03;3.87;;;9.40;99.90;;;;;;6205171;23;20390;-85
2023/01/05 04:50:17;;;;;;;25.47;4.67;;;9.60;99.90;;;;;;6159400;23;20386;-86
2023/01/05 04:52:42;;;;;;;22.37;4.50;;;9.40;99.90;;;;;;6186344;23;20024;-85
2023/01/05 04:55:17;;;;;;;23.80;4.40;;;10.10;99.90;;;;;;6159277;23;20029;-85
2023/01/05 04:57:58;;;;;;;22.55;4.63;;;10.20;99.90;;;;;;6158621;23;20009;-85
2023/01/05 05:00:24;;;;;;;19.37;3.73;;;9.60;99.90;;;;;;6178660;23;20240;-85
2023/01/05 05:03:08;;;;;;;20.23;4.07;;;10.60;99.90;;;;;;6159231;23;20315;-85
2023/01/05 05:05:34;;;;;;;20.85;4.57;;;9.70;99.90;;;;;;6183570;23;20060;-85
2023/01/05 05:08:15;;;;;;;21.17;4.45;;;10.90;99.90;;;;;;6158608;23;20017;-85
2023/01/05 05:10:41;;;;;;;17.45;3.60;;;10.10;99.90;;;;;;6159384;23;20021;-86
2023/01/05 05:13:18;;;;;;;24.05;4.38;;;10.90;99.90;;;;;;6092914;23;20025;-85
2023/01/05 05:15:58;;;;;;;22.77;3.97;;;11.10;99.90;;;;;;6094846;23;20055;-85
2023/01/05 05:18:44;;;;;;;21.20;3.80;;;8.90;99.90;;;;;;6093513;23;20114;-86
2023/01/05 05:21:25;;;;;;;21.00;3.90;;;8.70;99.90;;;;;;6094495;23;20023;-86
2023/01/05 05:24:05;;;;;;;22.70;3.88;;;9.50;99.90;;;;;;6107395;23;20511;-85
2023/01/05 05:26:49;;;;;;;18.60;3.95;;;9.50;99.90;;;;;;6069716;23;20329;-85
2023/01/05 05:29:15;;;;;;;23.00;4.50;;;10.70;99.90;;;;;;6069997;23;20343;-85
2023/01/05 05:31:55;;;;;;;23.13;4.33;;;10.60;99.90;;;;;;6094744;23;20093;-85
2023/01/05 05:34:21;;;;;;;21.73;3.97;;;10.70;99.90;;;;;;6069287;23;20134;-86
2023/01/05 05:36:58;;;;;;;20.70;3.60;;;9.50;99.90;;;;;;6094530;23;20402;-86
2023/01/05 05:39:36;;;;;;;22.95;3.70;;;9.60;99.90;;;;;;6068535;23;20022;-85
2023/01/05 05:42:11;;;;;;;20.33;4.43;;;10.20;99.90;;;;;;6094577;23;20014;-85
2023/01/05 05:44:36;;;;;;;14.60;3.60;;;10.00;99.90;;;;;;6155827;23;20021;-86
2023/01/05 05:47:02;;;;;;;20.33;4.18;;;9.30;99.90;;;;;;6155569;23;20018;-85
2023/01/05 05:49:27;;;;;;;22.17;4.18;;;9.50;99.90;;;;;;6155660;23;20064;-85
2023/01/05 05:52:11;;;;;;;17.63;3.70;;;9.70;99.90;;;;;;6155637;23;20421;-85
2023/01/05 05:54:46;;;;;;;17.60;3.47;;;10.70;99.90;;;;;;6129003;23;20017;-85
2023/01/05 05:57:12;;;;;;;22.05;4.50;;;10.90;99.90;;;;;;6134295;23;20017;-86
2023/01/05 05:59:53;;;;;;;26.08;4.20;;;11.10;99.90;;;;;;6163636;23;20020;-85
2023/01/05 06:02:18;;;;;;;23.63;4.00;;;11.10;99.90;;;;;;6128033;23;20017;-85
2023/01/05 06:04:59;;;;;;;23.42;4.22;;;10.60;99.90;;;;;;6155548;23;20017;-85
2023/01/05 06:07:44;;;;;;;19.00;4.17;;;10.80;99.90;;;;;;6128725;23;20021;-86
2023/01/05 06:10:25;;;;;;;21.38;4.05;;;9.60;99.90;;;;;;6148976;23;20096;-86
2023/01/05 06:12:53;;;;;;;21.10;3.95;;;10.60;99.90;;;;;;6155473;23;20021;-85
2023/01/05 06:15:28;;;;;;;16.52;4.05;;;10.50;99.90;;;;;;6128202;23;20337;-85
2023/01/05 06:18:12;;;;;;;18.85;4.03;;;9.70;99.90;;;;;;6129352;23;20044;-86
2023/01/05 06:20:38;;;;;;;16.65;3.92;;;10.80;99.90;;;;;;6129111;23;20024;-85
2023/01/05 06:23:04;;;;;;;20.23;4.00;;;11.20;99.90;;;;;;6154569;23;20029;-85
2023/01/05 06:25:45;;;;;;;24.30;3.85;;;11.00;99.90;;;;;;6128822;23;20017;-85
2023/01/05 06:28:11;;;;;;;18.83;4.28;;;9.60;99.90;;;;;;6128941;23;20390;-85
2023/01/05 06:30:51;;;;;;;19.23;4.07;;;10.40;99.90;;;;;;6128110;23;20045;-86
2023/01/05 06:33:33;;;;;;;20.20;3.97;;;9.80;99.90;;;;;;6134326;23;20025;-84
2023/01/05 06:36:11;;;;;;;16.52;4.00;;;10.50;99.90;;;;;;6160379;23;20072;-85
2023/01/05 06:38:39;;;;;;;20.10;4.43;;;9.30;99.90;;;;;;6129866;23;20022;-85
2023/01/05 06:41:23;;;;;;;18.13;4.65;;;11.20;99.90;;;;;;6155739;23;20347;-85
2023/01/05 06:43:51;;;;;;;;;;;10.80;99.90;;;;;;6155444;23;20013;-85
2023/01/05 06:46:39;;;;;;;19.05;4.13;;;9.60;99.90;;;;;;6155146;23;19923;-85
2023/01/05 06:49:17;;;;;;;20.98;5.03;;;11.10;99.90;;;;;;6128972;23;20013;-85
2023/01/05 06:51:43;;;;;;;28.55;4.20;;;11.10;99.90;;;;;;6128495;23;20021;-85
2023/01/05 06:54:09;;;;;;;24.73;4.13;;;9.60;99.90;;;;;;6128791;23;20009;-85
2023/01/05 06:56:35;;;;;;;26.63;4.70;;;10.40;99.90;;;;;;6129211;23;20014;-85
2023/01/05 06:59:01;;;;;;;19.50;4.07;;;10.40;99.90;;;;;;6154415;23;20016;-85
2023/01/05 07:01:26;;;;;;;20.48;4.22;;;9.50;99.90;;;;;;6155017;23;20017;-85
2023/01/05 07:04:06;;;;;;;18.40;4.10;;;10.50;99.90;;;;;;6154645;23;20088;-85
2023/01/05 07:06:33;;;;;;;19.25;3.83;;;10.40;99.90;;;;;;6154315;23;20013;-85
2023/01/05 07:09:02;;;;;;;22.10;4.22;;;9.50;99.90;;;;;;6170471;23;20009;-86
2023/01/05 07:11:28;;;;;;;20.92;4.05;;;10.60;99.90;;;;;;6124382;23;20291;-85
2023/01/05 07:13:54;;;;;;;17.25;4.07;;;9.40;99.90;;;;;;6129913;23;20335;-85
2023/01/05 07:16:20;;;;;;;21.17;4.25;;;9.30;99.90;;;;;;6158834;23;20104;-85
2023/01/05 07:18:45;;;;;;;21.27;4.07;;;8.70;99.90;;;;;;6131188;23;20101;-85
2023/01/05 07:21:11;;;;;;;18.27;4.95;;;9.80;99.90;;;;;;6132002;23;20033;-83
2023/01/05 07:23:37;;;;;;;17.63;5.20;;;10.40;99.90;;;;;;6158069;23;20021;-84
2023/01/05 07:26:08;;;;;;;38.42;21.95;;;9.20;99.90;;;;;;6157282;23;20017;-84
2023/01/05 07:28:52;;;;;;;19.75;4.65;;;11.10;99.90;;;;;;6131737;23;20063;-84
2023/01/05 07:31:18;;;;;;;27.58;4.70;;;8.90;99.90;;;;;;6158212;23;20071;-84
2023/01/05 07:33:48;;;;;;;21.77;5.15;;;10.50;99.90;;;;;;6130960;23;20009;-85
2023/01/05 07:36:13;;;;;;;26.30;8.70;;;10.80;99.90;;;;;;6131956;23;20017;-84
2023/01/05 07:38:39;;;;;;;24.63;4.53;;;10.60;99.90;;;;;;6158600;23;20521;-85
2023/01/05 07:41:10;;;;;;;27.75;6.25;;;9.20;99.90;;;;;;6130948;23;20013;-85
2023/01/05 07:43:51;;;;;;;19.23;4.20;;;10.90;99.90;;;;;;6131723;23;20032;-84
2023/01/05 07:46:17;;;;;;;23.55;8.90;;;10.80;99.90;;;;;;6163494;23;20014;-84
2023/01/05 07:48:45;;;;;;;21.95;4.95;;;10.70;99.90;;;;;;6131546;23;20044;-84
2023/01/05 07:51:27;;;;;;;23.70;6.15;;;10.90;99.90;;;;;;6131433;23;20052;-84
2023/01/05 07:53:54;;;;;;;29.75;11.63;;;10.80;99.90;;;;;;6157279;23;20485;-84
2023/01/05 07:56:20;;;;;;;28.75;10.90;;;10.60;99.90;;;;;;6131628;23;20013;-84
2023/01/05 07:58:48;;;;;;;27.92;8.38;;;9.30;99.90;;;;;;6158197;23;20429;-84
2023/01/05 08:01:16;;;;;;;25.10;5.18;;;9.20;99.90;;;;;;6130550;23;20056;-84
2023/01/05 08:03:42;;;;;;;23.20;5.40;;;9.20;99.90;;;;;;6132132;23;20515;-84
2023/01/05 08:06:10;;;;;;;33.38;9.07;;;9.50;99.90;;;;;;6132082;23;20096;-83
2023/01/05 08:08:35;;;;;;;21.15;6.72;;;9.20;99.90;;;;;;6130824;23;20057;-84
2023/01/05 08:11:06;;;;;;;28.83;9.97;;;9.20;99.90;;;;;;6158265;23;20319;-84
2023/01/05 08:14:01;;;;;;;25.40;6.05;;;9.20;99.90;;;;;;6147714;23;20029;-82
2023/01/05 08:16:29;;;;;;;30.90;11.85;;;8.70;99.90;;;;;;6160016;23;20013;-84
2023/01/05 08:18:55;;;;;;;33.63;8.43;;;9.80;99.90;;;;;;6187421;23;20017;-84
2023/01/05 08:21:20;;;;;;;24.53;5.87;;;9.20;99.90;;;;;;6193626;23;20020;-83
2023/01/05 08:23:46;;;;;;;27.43;9.40;;;9.20;99.90;;;;;;6182814;23;20017;-83
2023/01/05 08:26:21;;;;;;;21.47;5.57;;;9.20;99.90;;;;;;6159194;23;20112;-84
2023/01/05 08:28:47;;;;;;;21.85;4.95;;;9.20;99.90;;;;;;6158651;23;20024;-83
2023/01/05 08:31:25;;;;;;;24.10;5.70;;;9.20;99.90;;;;;;6185886;23;20017;-83
2023/01/05 08:33:54;;;;;;;21.35;4.82;;;9.10;99.90;;;;;;6159802;23;20021;-83
2023/01/05 08:36:19;;;;;;;24.37;5.10;;;10.60;99.90;;;;;;6158673;23;20071;-83
2023/01/05 08:38:51;;;;;;;21.03;4.70;;;10.10;99.90;;;;;;6186436;23;20374;-83
2023/01/05 08:41:25;;;;;;;24.53;5.63;;;9.20;99.90;;;;;;6159483;23;20028;-83
2023/01/05 08:43:55;;;;;;;24.30;4.18;;;9.20;99.90;;;;;;6158552;23;20071;-83
2023/01/05 08:46:24;;;;;;;19.50;4.88;;;9.20;99.90;;;;;;6186167;23;20013;-83
2023/01/05 08:48:51;;;;;;;18.77;4.45;;;10.40;99.90;;;;;;6185538;23;20342;-83
2023/01/05 08:51:17;;;;;;;21.70;4.70;;;9.20;99.90;;;;;;6158085;23;20512;-83
2023/01/05 08:53:43;;;;;;;21.37;5.00;;;9.20;99.90;;;;;;6186069;23;20079;-83
2023/01/05 08:56:09;;;;;;;20.80;4.70;;;9.20;99.90;;;;;;6185657;23;20021;-83
2023/01/05 08:58:39;;;;;;;27.67;5.30;;;9.20;99.90;;;;;;6169436;23;20013;-83
2023/01/05 09:01:18;;;;;;;26.02;4.82;;;9.30;99.90;;;;;;6159857;23;20005;-84
2023/01/05 09:03:44;;;;;;;23.60;4.57;;;9.30;99.90;;;;;;6158735;23;20096;-83
2023/01/05 09:06:11;;;;;;;24.13;5.82;;;10.00;99.90;;;;;;6159051;23;20380;-83
2023/01/05 09:08:38;;;;;;;26.25;4.82;;;9.30;99.90;;;;;;6159338;23;20021;-82
2023/01/05 09:11:17;;;;;;;16.50;4.53;;;9.30;99.90;;;;;;6185379;23;20036;-83
2023/01/05 09:13:57;;;;;;;25.25;5.35;;;9.40;99.90;;;;;;6158477;23;20009;-82
2023/01/05 09:16:26;;;;;;;20.25;4.47;;;9.80;99.90;;;;;;6158836;23;20025;-82
2023/01/05 09:18:51;;;;;;;21.00;4.65;;;9.40;99.90;;;;;;6158654;23;20016;-82
2023/01/05 09:21:17;;;;;;;24.95;4.50;;;9.40;99.90;;;;;;6158902;23;20017;-82
2023/01/05 09:23:43;;;;;;;22.17;4.18;;;9.40;99.90;;;;;;6159271;23;20013;-82
2023/01/05 09:26:11;;;;;;;18.95;4.03;;;9.50;99.90;;;;;;6177701;23;20028;-83
2023/01/05 09:28:38;;;;;;;17.00;3.72;;;9.40;99.90;;;;;;6185082;23;20017;-83
2023/01/05 09:31:15;;;;;;;22.58;5.03;;;9.60;99.90;;;;;;6185691;23;20017;-83
2023/01/05 09:33:42;;;;;;;25.70;4.47;;;9.50;99.90;;;;;;6158278;23;20046;-83
2023/01/05 09:36:08;;;;;;;26.17;4.63;;;9.70;99.90;;;;;;6185528;23;20254;-83
2023/01/05 09:38:35;;;;;;;22.85;4.88;;;9.50;99.90;;;;;;6184342;23;20016;-83
2023/01/05 09:41:20;;;;;;;20.75;4.57;;;10.80;99.90;;;;;;6158921;23;20060;-83
2023/01/05 09:43:48;;;;;;;19.02;4.13;;;9.50;99.90;;;;;;6158854;23;20067;-83
2023/01/05 09:46:18;;;;;;;22.40;4.30;;;10.80;99.90;;;;;;6157540;23;20013;-83
2023/01/05 09:48:48;;;;;;;21.45;4.90;;;10.80;99.90;;;;;;6185466;23;20055;-83
2023/01/05 09:51:14;;;;;;;24.85;4.32;;;9.60;99.90;;;;;;6185072;23;20020;-83
2023/01/05 09:53:40;;;;;;;20.92;4.28;;;9.60;99.90;;;;;;6184353;23;20024;-83
2023/01/05 09:56:14;;;;;;;19.52;4.90;;;9.60;99.90;;;;;;6159016;23;20043;-83
2023/01/05 09:58:42;;;;;;;20.95;4.88;;;9.60;99.90;;;;;;6182869;23;20059;-82
2023/01/05 10:01:15;;;;;;;25.07;9.00;;;9.60;99.90;;;;;;6157634;23;20445;-83
2023/01/05 10:03:58;;;;;;;20.93;4.50;;;10.50;99.90;;;;;;6158285;23;20500;-84
2023/01/05 10:06:28;;;;;;;22.87;4.63;;;9.70;99.90;;;;;;6158437;23;20260;-83
2023/01/05 10:08:55;;;;;;;20.03;4.77;;;10.10;99.90;;;;;;6188488;23;20040;-82
2023/01/05 10:14:34;;;;;;;23.30;4.80;;;10.30;99.90;;;;;;6038862;23;20420;-83
2023/01/05 10:17:00;;;;;;;21.57;4.97;;;10.20;99.90;;;;;;6136885;23;20013;-83
2023/01/05 10:19:40;;;;;;;20.58;4.22;;;9.80;99.90;;;;;;6184411;23;20024;-83
2023/01/05 10:22:40;;;;;;;21.48;3.92;;;9.80;99.90;;;;;;6157235;23;20071;-84
2023/01/05 10:25:20;;;;;;;21.42;4.30;;;9.80;99.90;;;;;;6131741;23;20025;-82
2023/01/05 10:28:09;;;;;;;18.00;3.92;;;9.70;99.90;;;;;;6157159;23;20349;-83
2023/01/05 10:31:00;;;;;;;21.73;4.68;;;9.80;99.90;;;;;;6185114;23;20024;-83
2023/01/05 10:33:45;;;;;;;22.25;4.65;;;9.70;99.90;;;;;;6157944;23;20013;-83
2023/01/05 10:36:34;;;;;;;17.63;4.68;;;9.80;99.90;;;;;;6157058;23;20036;-83
2023/01/05 10:39:31;;;;;;;16.90;3.50;;;10.50;99.90;;;;;;6185505;23;20063;-84
2023/01/05 10:42:11;;;;;;;15.32;3.92;;;9.70;99.90;;;;;;6183937;23;20454;-84
2023/01/05 10:44:54;;;;;;;13.27;3.50;;;9.80;99.90;;;;;;6186201;23;20013;-83
2023/01/05 10:47:21;;;;;;;14.60;3.35;;;9.80;99.90;;;;;;6161263;23;20346;-82
2023/01/05 10:49:48;;;;;;;17.27;4.47;;;9.80;99.90;;;;;;6157318;23;20462;-84
2023/01/05 10:52:17;;;;;;;18.00;4.57;;;10.00;99.90;;;;;;6184976;23;20048;-83
2023/01/05 10:54:51;;;;;;;16.77;5.05;;;9.80;99.90;;;;;;6158465;23;20025;-83
2023/01/05 10:57:32;;;;;;;14.88;3.72;;;9.80;99.90;;;;;;6157236;23;20400;-83
2023/01/05 11:00:06;;;;;;;16.47;3.93;;;10.90;99.90;;;;;;6158380;23;20452;-83
2023/01/05 11:02:36;;;;;;;;;;;9.80;99.90;;;;;;6184951;23;20324;-83
2023/01/05 11:05:09;;;;;;;17.98;3.75;;;11.00;99.90;;;;;;6157880;23;20264;-83
2023/01/05 11:07:50;;;;;;;14.20;3.83;;;9.80;99.90;;;;;;6157841;23;20047;-82
2023/01/05 11:10:38;;;;;;;14.75;4.07;;;9.80;99.90;;;;;;6182532;23;20138;-82
2023/01/05 11:13:39;;;;;;;15.30;4.53;;;9.80;99.90;;;;;;6183802;23;20013;-83
2023/01/05 11:16:38;;;;;;;17.80;5.53;;;9.70;99.90;;;;;;6185102;23;20056;-83
2023/01/05 11:19:06;;;;;;;17.65;4.40;;;9.80;99.90;;;;;;6178230;23;20021;-83
2023/01/05 11:21:35;;;;;;;20.60;4.22;;;9.80;99.90;;;;;;6186973;23;20009;-82
2023/01/05 11:24:03;;;;;;;15.25;5.63;;;10.30;99.90;;;;;;6183888;23;20017;-82
2023/01/05 11:26:47;;;;;;;21.58;6.13;;;9.80;99.90;;;;;;6184101;23;20506;-84
2023/01/05 11:29:17;;;;;;;15.57;3.78;;;10.10;99.90;;;;;;6182948;23;20508;-85
2023/01/05 11:31:51;;;;;;;14.90;4.40;;;9.80;99.90;;;;;;6183960;23;20024;-85
2023/01/05 11:34:28;;;;;;;;;;;9.90;99.90;;;;;;6185201;23;20017;-85
2023/01/05 11:37:17;;;;;;;17.00;4.60;;;9.90;99.90;;;;;;6158299;23;19980;-85
2023/01/05 11:39:45;;;;;;;13.20;3.33;;;9.90;99.90;;;;;;6175136;23;20524;-84
2023/01/05 11:42:17;;;;;;;16.20;4.15;;;10.80;99.90;;;;;;6184341;23;20457;-83
2023/01/05 11:44:47;;;;;;;23.23;4.80;;;10.00;99.90;;;;;;6151503;23;20028;-84
2023/01/05 11:47:25;;;;;;;15.18;4.47;;;10.10;99.90;;;;;;6183791;23;20024;-84
2023/01/05 11:50:24;;;;;;;18.50;5.93;;;10.00;99.90;;;;;;6183389;23;20049;-85
2023/01/05 11:52:55;;;;;;;19.88;6.88;;;10.00;99.90;;;;;;6156495;23;20391;-84
2023/01/05 11:55:38;;;;;;;19.25;7.60;;;10.00;99.90;;;;;;6157344;23;20052;-84
2023/01/05 11:58:16;;;;;;;18.92;6.35;;;10.00;99.90;;;;;;6165176;23;20045;-86
2023/01/05 12:00:48;;;;;;;21.13;9.52;;;10.00;99.90;;;;;;6156646;23;20079;-85
2023/01/05 12:03:44;;;;;;;16.70;5.60;;;11.10;99.90;;;;;;6185331;23;20067;-84
2023/01/05 12:06:33;;;;;;;16.63;4.78;;;9.90;99.90;;;;;;6158315;23;20008;-84
2023/01/05 12:09:33;;;;;;;15.43;3.45;;;9.90;99.90;;;;;;6154808;23;20024;-84
2023/01/05 12:12:17;;;;;;;20.60;7.05;;;9.90;99.90;;;;;;6159010;23;20072;-84
2023/01/05 12:14:48;;;;;;;19.05;6.25;;;9.90;99.90;;;;;;6158471;23;20021;-84
2023/01/05 12:17:20;;;;;;;18.98;4.47;;;10.00;99.90;;;;;;6158746;23;20454;-84
2023/01/05 12:19:51;;;;;;;28.38;13.02;;;10.00;99.90;;;;;;6185994;23;20049;-85
2023/01/05 12:22:45;;;;;;;25.20;7.15;;;10.10;99.90;;;;;;6157975;23;20104;-84
2023/01/05 12:25:54;;;;;;;26.38;10.13;;;10.10;99.90;;;;;;6132881;23;20037;-84
2023/01/05 12:28:41;;;;;;;16.73;3.83;;;10.10;99.90;;;;;;6154974;23;20021;-85
2023/01/05 12:31:37;;;;;;;18.98;5.32;;;11.10;99.90;;;;;;6154695;23;20024;-84
2023/01/05 12:34:27;;;;;;;29.38;12.43;;;9.50;99.90;;;;;;6161098;23;20036;-84
2023/01/05 12:37:32;;;;;;;18.92;10.40;;;11.70;99.90;;;;;;6146768;23;20022;-83
2023/01/05 12:40:41;;;;;;;19.70;7.15;;;10.10;99.90;;;;;;6156372;23;20045;-83
2023/01/05 12:43:54;;;;;;;20.40;8.43;;;10.00;99.90;;;;;;6128885;23;20514;-83
2023/01/05 12:46:37;;;;;;;18.15;9.88;;;10.10;99.90;;;;;;6155628;23;20442;-83
2023/01/05 12:49:31;;;;;;;19.30;5.38;;;10.10;99.90;;;;;;6155762;23;20053;-83
2023/01/05 12:52:17;;;;;;;17.07;8.13;;;10.10;99.90;;;;;;6113894;23;20342;-83
2023/01/05 12:55:26;;;;;;;15.95;5.35;;;11.20;99.90;;;;;;6155866;23;20021;-84
2023/01/05 12:58:15;;;;;;;21.95;9.68;;;10.00;99.90;;;;;;6130014;23;20072;-83
2023/01/05 13:00:44;;;;;;;17.35;5.00;;;10.00;99.90;;;;;;6130073;23;20022;-83
2023/01/05 13:03:32;;;;;;;18.30;6.82;;;10.40;99.90;;;;;;6154876;23;20469;-84
2023/01/05 13:06:13;;;;;;;22.20;7.72;;;11.10;99.90;;;;;;6105992;23;20025;-84
2023/01/05 13:09:17;;;;;;;26.63;11.05;;;9.80;99.90;;;;;;6133804;23;20029;-85
2023/01/05 13:12:06;;;;;;;19.60;6.25;;;9.90;99.90;;;;;;6069755;23;20022;-84
2023/01/05 13:15:48;;;;;;;16.20;4.45;;;9.80;99.90;;;;;;6129426;23;20009;-84
2023/01/05 13:18:30;;;;;;;18.80;4.72;;;9.10;99.90;;;;;;6036119;23;20090;-85
2023/01/05 13:21:12;;;;;;;17.77;5.32;;;11.10;99.90;;;;;;6065973;23;20022;-84
2023/01/05 13:24:26;;;;;;;19.02;5.40;;;9.70;99.90;;;;;;6124898;23;20494;-83
2023/01/05 13:27:07;;;;;;;18.83;4.75;;;9.70;99.90;;;;;;6042262;23;20020;-83
2023/01/05 13:29:58;;;;;;;19.13;5.40;;;9.50;99.90;;;;;;6043639;23;20022;-84
2023/01/05 13:32:57;;;;;;;17.75;4.28;;;8.90;99.90;;;;;;6128293;23;20450;-84
2023/01/05 13:36:01;;;;;;;19.50;5.18;;;9.70;99.90;;;;;;6155865;23;20386;-84
2023/01/05 13:39:17;;;;;;;17.40;4.40;;;9.70;99.90;;;;;;6155129;23;20021;-84
2023/01/05 13:41:52;;;;;;;20.45;4.55;;;9.70;99.90;;;;;;6089237;23;20017;-84
2023/01/05 13:44:55;;;;;;;21.55;4.75;;;11.30;99.90;;;;;;6130100;23;20373;-83
2023/01/05 13:47:59;;;;;;;18.70;4.10;;;8.80;99.90;;;;;;6129930;23;20100;-83
2023/01/05 13:50:58;;;;;;;22.52;4.88;;;9.70;99.90;;;;;;6129385;23;20435;-83
2023/01/05 13:53:38;;;;;;;18.65;4.38;;;10.90;99.90;;;;;;6128702;23;20056;-84
2023/01/05 13:56:23;;;;;;;21.48;5.43;;;9.60;99.90;;;;;;6129951;23;20022;-84
2023/01/05 13:59:40;;;;;;;20.77;5.05;;;9.60;99.90;;;;;;6140447;23;20022;-84
2023/01/05 14:02:24;;;;;;;22.30;5.03;;;9.70;99.90;;;;;;6019226;23;20023;-84
2023/01/05 14:05:37;;;;;;;20.30;5.05;;;9.70;99.90;;;;;;6037159;23;20256;-84
2023/01/05 14:08:13;;;;;;;23.67;5.03;;;9.50;99.90;;;;;;6005052;23;20026;-84
2023/01/05 14:11:17;;;;;;;22.70;4.72;;;9.60;99.90;;;;;;6013412;23;20127;-84
2023/01/05 14:13:49;;;;;;;23.67;4.60;;;9.70;99.90;;;;;;6012429;23;20102;-83
2023/01/05 14:16:36;;;;;;;23.23;4.80;;;11.00;99.90;;;;;;6012983;23;20023;-84